Arctic Village, Alaska
Current Conditions -  °F | °C
As of 5:36 PM on Saturday 20 Dec 2014 (Local Time) from PARC Reporting Station
Clear Clear  
Wind Chill: -12°   Ceiling: Unl
Heat Index:   Visibility: 10mi
Dew Point: -9°   Wind: 6mph
Humidity: 66%   Direction: 80°E
Pressure: 29.25"   Gusts: NA
Location:  68.13°N, 145.54°W
Report Text: PARC 210236Z AUTO 08005KT 10SM CLR M18/M23 A2925 RMK AO1
Loading
Personal Weather Stations






























Interactive Weather Map New forecast layout! Learn more

10-Day Weather Forecast

Advertisements
Track Severe Weather on mobile